Pagrindinis puslapis
METAR-TAF:

METAR-TAF

Oro uostai :

Capo Bellavista

Tortoli, Italija

platuma: 39-56N, ilguma: 009-43E, Aukštis: 138 m

Dabartinis oras

Ataskaita buvo paskelbta 1 valandą ir 3 minutes, ne 18:55 UTC
Vėjas 12 kt iš Šiaurės Vakarų
Temperatūra 21°C
Drėgmė 94%
Slėgis 1016 hPa
Matomumas 10 km arba daugiau
Išsisklaidę debesys ne aukštis 2000 ft

METAR: LIEB 191855Z 31012KT 9999 SCT020 21/20 Q1016 RETS RMK BKN QUK / QUL / VIS MAR 20 KM MON INVIS VIS MIN 9999

Laikas: 21:58 (19:58 UTC)


TAF: trūkstamas

Orai ataskaitas ir orų prognozės (METAR, TAF).

turimą stotys yra geltonos ir raudonos taškus žemėlapyje.

Perkelti pele per norėdami pamatyti stoties vardą.

Tada spustelėkite, norėdami matyti oro stebėjimo ir prognozės.

Norėdami pakeisti žemėlapį: spustelėkite ant žalios mygtukų su juodo kryžiaus žemyn,; žalią mygtuką su brūkšneliu, jei norite nutolinti; arba žalių rodyklių gretimoms žemėlapius.


METAR-TAF: